MSC Rania — 3EEB3 — position and weather

sailwx.info

Track history (hours):
 
Tides and Currents Weather Stations Pressure Air Temp Water Temp Dewpoint Dewpoint Depression Visibility Wind Speed Wind Dir Waves Ship Positions

MSC Rania

Last reported at 2017-Jan-16 10:33 UTC. Time now 2017-Jan-22 22:27 UTC.
Position N 32°16' W 117°42'.

Length 332 m; draft 10 m.

Type: Ship (hazmat cat A). MMSI: 371752000.

Date/timePositionNaut miles runAvg speedWind from/ knotsBaromVisibWave heightAir tempDewpointWater temp
2017-Jan-16 10:33N 32°16' W 117°42'1615.8
2017-Jan-16 09:33N 32°31' W 117°47'1615.6
2017-Jan-16 08:33N 32°46' W 117°53'1515.3
2017-Jan-16 07:33N 33°00' W 117°59'1211.5
2017-Jan-16 06:33N 33°11' W 118°04'1111.1
2017-Jan-16 05:32N 33°22' W 118°08'1110.9
2017-Jan-16 04:33N 33°32' W 118°12'13 0.7
2017-Jan-15 09:22N 33°45' W 118°14'0 0.0
2017-Jan-15 08:31N 33°45' W 118°14'0 0.0
2017-Jan-15 07:25N 33°45' W 118°14'0 0.0
2017-Jan-15 06:22N 33°45' W 118°14'0 0.0
2017-Jan-15 05:19N 33°45' W 118°14'0 0.0
2017-Jan-15 04:31N 33°45' W 118°14'0 0.0
2017-Jan-15 03:13N 33°45' W 118°14'0 0.0
2017-Jan-15 01:07N 33°45' W 118°14'0 0.0
2017-Jan-15 00:28N 33°45' W 118°14'0 0.0
2017-Jan-14 23:28N 33°45' W 118°14'0 0.0
2017-Jan-14 22:31N 33°45' W 118°14'0 0.0
2017-Jan-14 21:31N 33°45' W 118°14'0 0.0
2017-Jan-14 20:28N 33°45' W 118°14'0 0.0
2017-Jan-14 19:19N 33°45' W 118°14'0 0.0
2017-Jan-14 18:31N 33°45' W 118°14'0 0.0
2017-Jan-14 17:31N 33°45' W 118°14'0 0.0
2017-Jan-14 16:31N 33°45' W 118°14'0 0.0
2017-Jan-14 14:15N 33°45' W 118°14'4 5.6
2017-Jan-14 13:33N 33°42' W 118°11'8 7.7
2017-Jan-14 12:33N 33°36' W 118°16'9 8.5
2017-Jan-14 11:33N 33°39' W 118°25'8 7.9
2017-Jan-14 10:33N 33°42' W 118°34'8 8.4
2017-Jan-14 09:33N 33°46' W 118°43'  
Track history (hours):
 
Tides and Currents Weather Stations Pressure Air Temp Water Temp Dewpoint Dewpoint Depression Visibility Wind Speed Wind Dir Waves Ship Positions

MSC Rania

Last reported at 2017-Jan-16 10:33 UTC. Time now 2017-Jan-22 22:27 UTC.
Position N 32°16' W 117°42'.

Length 332 m; draft 10 m.

Type: Ship (hazmat cat A). MMSI: 371752000.

Date/timePositionNaut miles runAvg speedWind from/ knotsBaromVisibWave heightAir tempDewpointWater temp
2017-Jan-16 10:33N 32°16' W 117°42'1615.8
2017-Jan-16 09:33N 32°31' W 117°47'1615.6
2017-Jan-16 08:33N 32°46' W 117°53'1515.3
2017-Jan-16 07:33N 33°00' W 117°59'1211.5
2017-Jan-16 06:33N 33°11' W 118°04'1111.1
2017-Jan-16 05:32N 33°22' W 118°08'1110.9
2017-Jan-16 04:33N 33°32' W 118°12'13 0.7
2017-Jan-15 09:22N 33°45' W 118°14'0 0.0
2017-Jan-15 08:31N 33°45' W 118°14'0 0.0
2017-Jan-15 07:25N 33°45' W 118°14'0 0.0
2017-Jan-15 06:22N 33°45' W 118°14'0 0.0
2017-Jan-15 05:19N 33°45' W 118°14'0 0.0
2017-Jan-15 04:31N 33°45' W 118°14'0 0.0
2017-Jan-15 03:13N 33°45' W 118°14'0 0.0
2017-Jan-15 01:07N 33°45' W 118°14'0 0.0
2017-Jan-15 00:28N 33°45' W 118°14'0 0.0
2017-Jan-14 23:28N 33°45' W 118°14'0 0.0
2017-Jan-14 22:31N 33°45' W 118°14'0 0.0
2017-Jan-14 21:31N 33°45' W 118°14'0 0.0
2017-Jan-14 20:28N 33°45' W 118°14'0 0.0
2017-Jan-14 19:19N 33°45' W 118°14'0 0.0
2017-Jan-14 18:31N 33°45' W 118°14'0 0.0
2017-Jan-14 17:31N 33°45' W 118°14'0 0.0
2017-Jan-14 16:31N 33°45' W 118°14'0 0.0
2017-Jan-14 14:15N 33°45' W 118°14'4 5.6
2017-Jan-14 13:33N 33°42' W 118°11'8 7.7
2017-Jan-14 12:33N 33°36' W 118°16'9 8.5
2017-Jan-14 11:33N 33°39' W 118°25'8 7.9
2017-Jan-14 10:33N 33°42' W 118°34'8 8.4
2017-Jan-14 09:33N 33°46' W 118°43'  

Dump ship's entire track history